createdAt,value
2017-05-17T00:00:26.456Z,18.76
2017-05-17T00:01:48.278Z,18.72
2017-05-17T00:03:10.562Z,18.72
2017-05-17T00:04:32.753Z,18.84
2017-05-17T00:05:53.971Z,18.82
2017-05-17T00:07:16.478Z,18.8
2017-05-17T00:08:38.965Z,18.81
2017-05-17T00:10:01.118Z,18.81
2017-05-17T00:11:23.394Z,18.72
2017-05-17T00:12:44.909Z,18.81
2017-05-17T00:14:06.738Z,18.8
2017-05-17T00:15:28.029Z,18.78
2017-05-17T00:16:50.498Z,18.73
2017-05-17T00:18:12.726Z,18.73
2017-05-17T00:19:34.895Z,18.73
2017-05-17T00:20:56.717Z,18.76
2017-05-17T00:22:19.189Z,18.81
2017-05-17T00:23:41.015Z,18.75
2017-05-17T00:25:03.181Z,18.82
2017-05-17T00:26:25.991Z,18.87
2017-05-17T00:27:47.504Z,18.69
2017-05-17T00:29:09.342Z,18.82
2017-05-17T00:30:31.174Z,18.72
2017-05-17T00:31:53.316Z,18.73
2017-05-17T00:33:15.518Z,18.67
2017-05-17T00:34:37.036Z,18.7
2017-05-17T00:35:58.556Z,18.69
2017-05-17T00:37:20.784Z,18.76
2017-05-17T00:38:42.929Z,18.69
2017-05-17T00:40:05.108Z,18.72
2017-05-17T00:41:27.717Z,18.7
2017-05-17T00:42:49.818Z,18.73
2017-05-17T00:44:11.482Z,18.75
2017-05-17T00:45:33.939Z,18.72
2017-05-17T00:46:56.177Z,18.66
2017-05-17T00:48:18.488Z,18.65
2017-05-17T00:49:40.335Z,18.58
2017-05-17T00:51:02.266Z,18.57
2017-05-17T00:52:23.781Z,18.6
2017-05-17T00:53:46.227Z,18.6
2017-05-17T00:55:08.073Z,18.6
2017-05-17T00:56:29.956Z,18.55
2017-05-17T00:57:52.120Z,18.58
2017-05-17T00:59:13.949Z,18.52
2017-05-17T01:00:36.148Z,18.54
2017-05-17T01:01:58.035Z,18.57
2017-05-17T01:03:19.888Z,18.57
2017-05-17T01:04:42.125Z,18.58
2017-05-17T01:06:03.639Z,18.52
2017-05-17T01:07:25.468Z,18.52
2017-05-17T01:08:47.652Z,18.6
2017-05-17T01:10:09.895Z,18.6
2017-05-17T01:11:32.148Z,18.65
2017-05-17T01:12:53.039Z,18.55
2017-05-17T01:14:14.889Z,18.65
2017-05-17T01:15:36.979Z,18.63
2017-05-17T01:16:59.137Z,18.58
2017-05-17T01:18:20.341Z,18.51
2017-05-17T01:19:42.806Z,18.58
2017-05-17T01:21:05.316Z,18.57
2017-05-17T01:22:26.533Z,18.51
2017-05-17T01:23:48.162Z,18.54
2017-05-17T01:25:10.353Z,18.55
2017-05-17T01:26:32.867Z,18.55
2017-05-17T01:27:55.330Z,18.52
2017-05-17T01:29:16.537Z,18.54
2017-05-17T01:30:39.048Z,18.58
2017-05-17T01:32:01.881Z,18.5
2017-05-17T01:33:23.752Z,18.5
2017-05-17T01:34:45.909Z,18.54
2017-05-17T01:36:08.058Z,18.52
2017-05-17T01:37:30.241Z,18.54
2017-05-17T01:38:51.761Z,18.57
2017-05-17T01:40:13.926Z,18.55
2017-05-17T01:41:35.778Z,18.57
2017-05-17T01:42:58.038Z,18.55
2017-05-17T01:44:20.477Z,18.52
2017-05-17T01:45:42.309Z,18.51
2017-05-17T01:47:03.828Z,18.51
2017-05-17T01:48:26.168Z,18.5
2017-05-17T01:49:48.637Z,18.5
2017-05-17T01:51:10.489Z,18.52
2017-05-17T01:52:32.310Z,18.54
2017-05-17T01:53:54.537Z,18.51
2017-05-17T01:55:15.739Z,18.47
2017-05-17T01:56:37.582Z,18.52
2017-05-17T01:57:59.105Z,18.51
2017-05-17T01:59:21.067Z,18.5
2017-05-17T02:00:43.232Z,18.5
2017-05-17T02:02:05.373Z,18.5
2017-05-17T02:03:27.619Z,18.52
2017-05-17T02:04:49.739Z,18.45
2017-05-17T02:06:10.623Z,18.47
2017-05-17T02:07:32.139Z,18.5
2017-05-17T02:08:54.344Z,18.47
2017-05-17T02:10:17.149Z,18.45
2017-05-17T02:11:38.705Z,18.39
2017-05-17T02:12:59.899Z,18.39
2017-05-17T02:14:22.040Z,18.41
2017-05-17T02:15:43.987Z,18.39
2017-05-17T02:17:06.496Z,18.41
2017-05-17T02:18:27.699Z,18.35
2017-05-17T02:19:49.234Z,18.39
2017-05-17T02:21:11.384Z,18.39
2017-05-17T02:22:32.897Z,18.37
2017-05-17T02:23:55.100Z,18.36
2017-05-17T02:25:16.408Z,18.41
2017-05-17T02:26:38.829Z,18.33
2017-05-17T02:28:00.656Z,18.3
2017-05-17T02:29:22.559Z,18.36
2017-05-17T02:30:44.727Z,18.3
2017-05-17T02:32:06.615Z,18.36
2017-05-17T02:33:28.132Z,18.32
2017-05-17T02:34:50.067Z,18.33
2017-05-17T02:36:11.610Z,18.26
2017-05-17T02:37:34.447Z,18.25
2017-05-17T02:38:55.975Z,18.26
2017-05-17T02:40:17.558Z,18.2
2017-05-17T02:41:40.127Z,18.17
2017-05-17T02:43:02.579Z,18.14
2017-05-17T02:44:24.727Z,18.21
2017-05-17T02:45:46.013Z,18.2
2017-05-17T02:47:07.634Z,18.15
2017-05-17T02:48:30.334Z,18.26
2017-05-17T02:49:52.556Z,18.11
2017-05-17T02:51:14.704Z,18.15
2017-05-17T02:52:36.618Z,18.1
2017-05-17T02:53:58.806Z,18.1
2017-05-17T02:55:21.278Z,18.03
2017-05-17T02:56:42.804Z,18.05
2017-05-17T02:58:04.318Z,18.05
2017-05-17T02:59:26.791Z,18.02
2017-05-17T03:00:49.067Z,18.1
2017-05-17T03:02:10.896Z,18.07
2017-05-17T03:03:33.370Z,18.11
2017-05-17T03:04:55.191Z,18.1
2017-05-17T03:06:17.349Z,18.05
2017-05-17T03:07:39.267Z,18.1
2017-05-17T03:09:00.836Z,18.11
2017-05-17T03:10:22.959Z,18.11
2017-05-17T03:11:44.838Z,18.08
2017-05-17T03:13:06.057Z,18.05
2017-05-17T03:14:27.908Z,18.15
2017-05-17T03:15:50.029Z,18.1
2017-05-17T03:17:12.564Z,18.15
2017-05-17T03:18:35.108Z,18.11
2017-05-17T03:19:56.679Z,18.07
2017-05-17T03:21:18.626Z,18.07
2017-05-17T03:22:40.259Z,18.07
2017-05-17T03:24:02.111Z,18.08
2017-05-17T03:25:24.405Z,18.08
2017-05-17T03:26:46.602Z,18.07
2017-05-17T03:28:08.468Z,18.07
2017-05-17T03:29:30.619Z,18.11
2017-05-17T03:30:52.759Z,18.08
2017-05-17T03:32:14.788Z,18.03
2017-05-17T03:33:36.345Z,18.15
2017-05-17T03:34:57.872Z,18.15
2017-05-17T03:36:19.541Z,18.17
2017-05-17T03:37:41.727Z,18.11
2017-05-17T03:39:03.247Z,18.21
2017-05-17T03:40:25.414Z,18.2
2017-05-17T03:41:47.314Z,18.15
2017-05-17T03:43:10.043Z,18.15
2017-05-17T03:44:32.279Z,18.15
2017-05-17T03:45:54.132Z,18.25
2017-05-17T03:47:15.948Z,18.18
2017-05-17T03:48:38.529Z,18.2
2017-05-17T03:49:59.741Z,18.3
2017-05-17T03:51:21.286Z,18.27
2017-05-17T03:52:43.438Z,18.26
2017-05-17T03:54:05.330Z,18.15
2017-05-17T03:55:27.537Z,18.14
2017-05-17T03:56:49.668Z,18.17
2017-05-17T03:58:11.495Z,18.23
2017-05-17T03:59:33.720Z,18.18
2017-05-17T04:00:55.547Z,18.2
2017-05-17T04:02:17.449Z,18.25
2017-05-17T04:03:39.938Z,18.33
2017-05-17T04:05:02.567Z,18.29
2017-05-17T04:06:23.774Z,18.32
2017-05-17T04:07:45.294Z,18.32
2017-05-17T04:09:07.446Z,18.37
2017-05-17T04:10:29.906Z,18.33
2017-05-17T04:11:51.728Z,18.44
2017-05-17T04:13:13.259Z,18.44
2017-05-17T04:14:35.507Z,18.42
2017-05-17T04:15:57.005Z,18.45
2017-05-17T04:17:19.208Z,18.5
2017-05-17T04:18:41.367Z,18.54
2017-05-17T04:20:03.246Z,18.58
2017-05-17T04:21:25.839Z,18.51
2017-05-17T04:22:47.399Z,18.62
2017-05-17T04:24:08.945Z,18.62
2017-05-17T04:25:31.088Z,18.75
2017-05-17T04:26:53.909Z,18.73
2017-05-17T04:28:15.795Z,18.73
2017-05-17T04:29:37.713Z,18.81
2017-05-17T04:30:59.915Z,18.87
2017-05-17T04:32:22.060Z,18.95
2017-05-17T04:33:43.957Z,19
2017-05-17T04:35:05.788Z,19.08
2017-05-17T04:36:27.625Z,19.08
2017-05-17T04:37:50.395Z,19.08
2017-05-17T04:39:11.900Z,19.1
2017-05-17T04:40:34.118Z,19.21
2017-05-17T04:41:56.166Z,19.25
2017-05-17T04:43:17.996Z,19.33
2017-05-17T04:44:40.478Z,19.31
2017-05-17T04:46:02.305Z,19.31
2017-05-17T04:47:24.136Z,19.43
2017-05-17T04:48:46.559Z,19.41
2017-05-17T04:50:08.079Z,19.54
2017-05-17T04:51:29.649Z,19.5
2017-05-17T04:52:51.489Z,19.62
2017-05-17T04:54:13.948Z,19.59
2017-05-17T04:55:35.801Z,19.69
2017-05-17T04:56:57.313Z,19.76
2017-05-17T04:58:18.904Z,19.69
2017-05-17T04:59:41.103Z,19.8
2017-05-17T05:01:02.047Z,19.77
2017-05-17T05:02:24.249Z,19.83
2017-05-17T05:03:45.909Z,19.87
2017-05-17T05:05:07.917Z,19.88
2017-05-17T05:06:30.088Z,19.94
2017-05-17T05:07:52.247Z,19.96
2017-05-17T05:09:14.095Z,20.06
2017-05-17T05:10:36.598Z,20.1
2017-05-17T05:11:58.424Z,20.2
2017-05-17T05:13:20.265Z,20.33
2017-05-17T05:14:42.909Z,20.33
2017-05-17T05:16:05.011Z,20.39
2017-05-17T05:17:26.870Z,20.48
2017-05-17T05:18:49.335Z,20.58
2017-05-17T05:20:11.895Z,20.59
2017-05-17T05:21:34.260Z,20.58
2017-05-17T05:22:56.455Z,20.59
2017-05-17T05:24:18.628Z,20.69
2017-05-17T05:25:40.475Z,20.8
2017-05-17T05:27:02.603Z,20.79
2017-05-17T05:28:24.529Z,20.82
2017-05-17T05:29:46.475Z,20.97
2017-05-17T05:31:09.015Z,20.97
2017-05-17T05:32:30.898Z,21.1
2017-05-17T05:33:53.058Z,21.16
2017-05-17T05:35:14.396Z,21.25
2017-05-17T05:36:36.358Z,21.34
2017-05-17T05:37:58.524Z,21.29
2017-05-17T05:39:20.357Z,21.25
2017-05-17T05:40:42.508Z,21.31
2017-05-17T05:42:04.989Z,21.31
2017-05-17T05:43:27.779Z,21.31
2017-05-17T05:44:49.306Z,21.4
2017-05-17T05:46:10.850Z,21.35
2017-05-17T05:47:33.319Z,21.4
2017-05-17T05:48:55.552Z,21.47
2017-05-17T05:50:17.066Z,21.64
2017-05-17T05:51:39.530Z,21.62
2017-05-17T05:53:02.030Z,21.72
2017-05-17T05:54:24.247Z,21.92
2017-05-17T05:55:46.098Z,22.02
2017-05-17T05:57:08.268Z,22.09
2017-05-17T05:58:30.472Z,22.05
2017-05-17T05:59:53.397Z,22.02
2017-05-17T06:01:15.556Z,22.02
2017-05-17T06:02:37.127Z,21.96
2017-05-17T06:03:59.287Z,21.88
2017-05-17T06:05:21.736Z,21.9
2017-05-17T06:06:43.269Z,21.92
2017-05-17T06:08:04.548Z,21.94
2017-05-17T06:09:26.455Z,21.84
2017-05-17T06:10:48.669Z,21.71
2017-05-17T06:12:09.878Z,21.67
2017-05-17T06:13:31.155Z,21.62
2017-05-17T06:14:53.035Z,21.59
2017-05-17T06:16:15.909Z,21.47
2017-05-17T06:17:38.378Z,21.31
2017-05-17T06:19:00.238Z,21.35
2017-05-17T06:20:22.747Z,21.42
2017-05-17T06:21:45.188Z,21.54
2017-05-17T06:23:07.457Z,21.69
2017-05-17T06:24:29.617Z,21.83
2017-05-17T06:25:51.464Z,21.99
2017-05-17T06:27:13.669Z,22.37
2017-05-17T06:28:35.208Z,22.79
2017-05-17T06:29:57.365Z,23.33
2017-05-17T06:31:19.933Z,23.7
2017-05-17T06:32:42.045Z,23.76
2017-05-17T06:34:04.199Z,23.73
2017-05-17T06:35:26.056Z,23.63
2017-05-17T06:36:47.662Z,23.57
2017-05-17T06:38:09.556Z,23.66
2017-05-17T06:39:31.528Z,23.84
2017-05-17T06:40:53.049Z,23.98
2017-05-17T06:42:14.906Z,24.03
2017-05-17T06:43:37.010Z,24.2
2017-05-17T06:44:59.517Z,24.68
2017-05-17T06:46:21.105Z,25.28
2017-05-17T06:47:43.067Z,25.5
2017-05-17T06:49:05.547Z,25.73
2017-05-17T06:50:27.704Z,26.15
2017-05-17T06:51:49.557Z,26.6
2017-05-17T06:53:11.397Z,26.76
2017-05-17T06:54:34.210Z,26.82
2017-05-17T06:55:56.457Z,27.18
2017-05-17T06:57:18.418Z,27.25
2017-05-17T06:58:40.687Z,27.19
2017-05-17T07:00:03.473Z,27.21
2017-05-17T07:01:25.308Z,27.18
2017-05-17T07:02:47.256Z,27.02
2017-05-17T07:04:09.111Z,26.95
2017-05-17T07:05:31.573Z,27.12
2017-05-17T07:06:53.472Z,27.75
2017-05-17T07:08:15.327Z,28.58
2017-05-17T07:09:36.848Z,29
2017-05-17T07:10:59.347Z,29.14
2017-05-17T07:12:21.245Z,28.96
2017-05-17T07:13:43.398Z,28.62
2017-05-17T07:15:05.279Z,28.06
2017-05-17T07:16:27.486Z,27.93
2017-05-17T07:17:49.387Z,28.15
2017-05-17T07:19:11.267Z,28.44
2017-05-17T07:20:32.807Z,29.42
2017-05-17T07:21:55.859Z,30.55
2017-05-17T07:23:17.724Z,31.65
2017-05-17T07:24:39.883Z,32.4
2017-05-17T07:26:01.740Z,33.23
2017-05-17T07:27:23.869Z,33.95
2017-05-17T07:28:45.410Z,34.49
2017-05-17T07:30:07.256Z,34.81
2017-05-17T07:31:29.418Z,34.64
2017-05-17T07:32:52.284Z,35.15
2017-05-17T07:34:14.118Z,35.52
2017-05-17T07:35:35.647Z,36
2017-05-17T07:36:57.821Z,35.47
2017-05-17T07:38:20.408Z,35.04
2017-05-17T07:39:42.591Z,35.04
2017-05-17T07:41:04.748Z,35.33
2017-05-17T07:42:26.980Z,35.74
2017-05-17T07:43:49.448Z,35.34
2017-05-17T07:45:11.597Z,34.85
2017-05-17T07:46:33.449Z,35.31
2017-05-17T07:47:55.328Z,35.59
2017-05-17T07:49:17.503Z,35.99
2017-05-17T07:50:39.674Z,35.97
2017-05-17T07:52:01.854Z,35.65
2017-05-17T07:53:23.837Z,34.8
2017-05-17T07:54:45.998Z,35.11
2017-05-17T07:56:07.928Z,34.8
2017-05-17T07:57:29.928Z,33.9
2017-05-17T07:58:52.423Z,32.78
2017-05-17T08:00:14.627Z,32.06
2017-05-17T08:01:36.824Z,32.18
2017-05-17T08:02:58.735Z,31.92
2017-05-17T08:04:20.956Z,32.18
2017-05-17T08:05:43.108Z,31.76
2017-05-17T08:07:05.291Z,31.78
2017-05-17T08:08:27.830Z,31.65
2017-05-17T08:09:50.170Z,31.61
2017-05-17T08:11:12.724Z,31.41
2017-05-17T08:12:34.906Z,31.31
2017-05-17T08:13:56.768Z,30.7
2017-05-17T08:15:18.947Z,30.17
2017-05-17T08:16:41.150Z,29.61
2017-05-17T08:18:03.000Z,29.34
2017-05-17T08:19:25.278Z,29.16
2017-05-17T08:20:46.897Z,29.36
2017-05-17T08:22:09.407Z,29.65
2017-05-17T08:23:31.699Z,29.05
2017-05-17T08:24:53.885Z,28.8
2017-05-17T08:26:15.730Z,28.81
2017-05-17T08:27:37.558Z,28.58
2017-05-17T08:28:59.730Z,28.37
2017-05-17T08:30:22.228Z,28.56
2017-05-17T08:31:44.383Z,28.62
2017-05-17T08:33:06.520Z,28.48
2017-05-17T08:34:28.138Z,28.46
2017-05-17T08:35:50.693Z,28.52
2017-05-17T08:37:12.610Z,28.61
2017-05-17T08:38:35.170Z,28.67
2017-05-17T08:39:56.390Z,28.86
2017-05-17T08:41:18.557Z,28.93
2017-05-17T08:42:41.036Z,29.16
2017-05-17T08:44:02.887Z,29.24
2017-05-17T08:45:24.786Z,29.3
2017-05-17T08:46:46.422Z,29.28
2017-05-17T08:48:08.686Z,28.96
2017-05-17T08:49:31.357Z,29.02
2017-05-17T08:50:53.209Z,29.26
2017-05-17T08:52:15.160Z,29.39
2017-05-17T08:53:37.019Z,29.55
2017-05-17T08:54:59.478Z,29.63
2017-05-17T08:56:21.107Z,29.67
2017-05-17T08:57:42.649Z,29.51
2017-05-17T08:59:04.815Z,29.27
2017-05-17T09:00:26.995Z,29.24
2017-05-17T09:01:48.966Z,29.51
2017-05-17T09:03:11.202Z,29.61
2017-05-17T09:04:33.163Z,29.57
2017-05-17T09:05:55.368Z,29.57
2017-05-17T09:07:17.866Z,29.49
2017-05-17T09:08:40.021Z,29.27
2017-05-17T09:10:01.556Z,29.12
2017-05-17T09:11:24.037Z,28.92
2017-05-17T09:12:46.557Z,29.02
2017-05-17T09:14:08.725Z,29.06
2017-05-17T09:15:30.895Z,28.92
2017-05-17T09:16:53.664Z,28.95
2017-05-17T09:18:15.517Z,28.89
2017-05-17T09:19:37.363Z,28.88
2017-05-17T09:20:59.538Z,28.62
2017-05-17T09:22:22.068Z,28.61
2017-05-17T09:23:44.222Z,28.44
2017-05-17T09:25:05.927Z,28.46
2017-05-17T09:26:27.766Z,28.49
2017-05-17T09:27:49.651Z,28.67
2017-05-17T09:29:12.306Z,28.66
2017-05-17T09:30:34.228Z,28.66
2017-05-17T09:31:55.809Z,28.56
2017-05-17T09:33:17.319Z,28.55
2017-05-17T09:34:38.929Z,28.59
2017-05-17T09:36:01.109Z,28.71
2017-05-17T09:37:22.957Z,28.73
2017-05-17T09:38:45.155Z,28.58
2017-05-17T09:40:07.335Z,28.96
2017-05-17T09:41:29.204Z,29.11
2017-05-17T09:42:51.076Z,29.02
2017-05-17T09:44:13.224Z,28.78
2017-05-17T09:45:35.188Z,28.64
2017-05-17T09:46:57.028Z,28.74
2017-05-17T09:48:18.567Z,28.62
2017-05-17T09:49:41.046Z,28.52
2017-05-17T09:51:03.018Z,28.62
2017-05-17T09:52:25.197Z,28.64
2017-05-17T09:53:47.041Z,28.66
2017-05-17T09:55:09.529Z,28.46
2017-05-17T09:56:31.755Z,28.19
2017-05-17T09:57:53.389Z,27.97
2017-05-17T09:59:15.617Z,27.88
2017-05-17T10:00:38.066Z,27.78
2017-05-17T10:02:00.235Z,28.07
2017-05-17T10:03:22.746Z,28.33
2017-05-17T10:04:44.681Z,28.33
2017-05-17T10:06:07.137Z,28.29
2017-05-17T10:07:28.997Z,28.58
2017-05-17T10:08:50.838Z,28.71
2017-05-17T10:10:13.031Z,28.83
2017-05-17T10:11:35.502Z,28.88
2017-05-17T10:12:57.786Z,29.05
2017-05-17T10:14:19.390Z,28.95
2017-05-17T10:15:41.309Z,28.73
2017-05-17T10:17:03.774Z,28.7
2017-05-17T10:18:26.046Z,28.49
2017-05-17T10:19:47.890Z,28.37
2017-05-17T10:21:10.378Z,28.15
2017-05-17T10:22:32.883Z,27.99
2017-05-17T10:23:55.057Z,27.9
2017-05-17T10:25:16.907Z,27.92
2017-05-17T10:26:39.068Z,27.93
2017-05-17T10:28:01.644Z,28.03
2017-05-17T10:29:23.486Z,27.92
2017-05-17T10:30:45.006Z,27.6
2017-05-17T10:32:07.606Z,27.62
2017-05-17T10:33:29.389Z,27.57
2017-05-17T10:34:51.860Z,27.77
2017-05-17T10:36:14.331Z,28.11
2017-05-17T10:37:36.174Z,28.46
2017-05-17T10:38:57.949Z,28.88
2017-05-17T10:40:19.496Z,29.02
2017-05-17T10:41:41.345Z,28.98
2017-05-17T10:43:03.881Z,29.18
2017-05-17T10:44:26.367Z,29.12
2017-05-17T10:45:48.636Z,29.3
2017-05-17T10:47:10.485Z,29.31
2017-05-17T10:48:32.745Z,29.65
2017-05-17T10:49:55.917Z,29.86
2017-05-17T10:51:17.453Z,30
2017-05-17T10:52:39.111Z,30.17
2017-05-17T10:54:01.350Z,30.39
2017-05-17T10:55:23.444Z,30.49
2017-05-17T10:56:45.292Z,30.46
2017-05-17T10:58:07.477Z,30.16
2017-05-17T10:59:29.318Z,29.98
2017-05-17T11:00:51.782Z,30.08
2017-05-17T11:02:13.367Z,30.15
2017-05-17T11:03:35.627Z,30.15
2017-05-17T11:04:57.487Z,29.87
2017-05-17T11:06:20.216Z,29.78
2017-05-17T11:07:42.058Z,29.78
2017-05-17T11:09:04.258Z,29.73
2017-05-17T11:10:26.176Z,29.82
2017-05-17T11:11:49.056Z,29.6
2017-05-17T11:13:11.652Z,29.53
2017-05-17T11:14:33.526Z,29.43
2017-05-17T11:15:55.398Z,29.37
2017-05-17T11:17:18.360Z,29.41
2017-05-17T11:18:40.542Z,29.43
2017-05-17T11:20:03.047Z,29.37
2017-05-17T11:21:25.390Z,29.33
2017-05-17T11:22:47.814Z,29.31
2017-05-17T11:24:09.357Z,29.19
2017-05-17T11:25:31.608Z,29.02
2017-05-17T11:26:53.518Z,28.9
2017-05-17T11:28:15.774Z,28.92
2017-05-17T11:29:37.647Z,28.78
2017-05-17T11:30:59.943Z,28.68
2017-05-17T11:32:22.129Z,28.85
2017-05-17T11:33:44.917Z,28.9
2017-05-17T11:35:06.782Z,29
2017-05-17T11:36:28.616Z,28.96
2017-05-17T11:37:51.131Z,29.02
2017-05-17T11:39:13.898Z,29.08
2017-05-17T11:40:35.757Z,28.96
2017-05-17T11:41:57.286Z,29.15
2017-05-17T11:43:19.533Z,29
2017-05-17T11:44:41.659Z,29.06
2017-05-17T11:46:04.162Z,29.02
2017-05-17T11:47:26.019Z,28.96
2017-05-17T11:48:48.186Z,29.15
2017-05-17T11:50:09.657Z,29.18
2017-05-17T11:51:31.543Z,29.02
2017-05-17T11:52:53.070Z,28.89
2017-05-17T11:54:15.617Z,28.77
2017-05-17T11:55:38.032Z,28.8
2017-05-17T11:57:00.558Z,28.76
2017-05-17T11:58:22.744Z,28.86
2017-05-17T11:59:45.005Z,28.92
2017-05-17T12:01:07.504Z,28.81
2017-05-17T12:02:29.688Z,28.9
2017-05-17T12:03:51.720Z,29
2017-05-17T12:05:13.580Z,29.04
2017-05-17T12:06:35.419Z,29
2017-05-17T12:07:56.950Z,29.04
2017-05-17T12:09:19.477Z,29.3
2017-05-17T12:10:41.627Z,29.37
2017-05-17T12:12:03.519Z,29.45
2017-05-17T12:13:25.677Z,29.53
2017-05-17T12:14:47.846Z,29.6
2017-05-17T12:16:09.729Z,29.48
2017-05-17T12:17:32.146Z,29.42
2017-05-17T12:18:54.009Z,29.36
2017-05-17T12:20:16.175Z,29.3
2017-05-17T12:21:38.007Z,29.27
2017-05-17T12:23:00.216Z,29.27
2017-05-17T12:24:22.392Z,29.24
2017-05-17T12:25:44.056Z,29.16
2017-05-17T12:27:06.231Z,29.05
2017-05-17T12:28:28.697Z,28.95
2017-05-17T12:29:50.876Z,28.95
2017-05-17T12:31:12.835Z,28.9
2017-05-17T12:32:35.018Z,28.88
2017-05-17T12:33:56.878Z,28.92
2017-05-17T12:35:19.477Z,28.95
2017-05-17T12:36:41.484Z,28.89
2017-05-17T12:38:03.718Z,28.88
2017-05-17T12:39:26.137Z,29.08
2017-05-17T12:40:47.666Z,29.14
2017-05-17T12:42:09.597Z,29.3
2017-05-17T12:43:31.486Z,29.41
2017-05-17T12:44:54.023Z,29.58
2017-05-17T12:46:16.206Z,29.63
2017-05-17T12:47:38.448Z,29.71
2017-05-17T12:49:00.307Z,29.76
2017-05-17T12:50:22.513Z,29.64
2017-05-17T12:51:44.387Z,29.55
2017-05-17T12:53:05.928Z,29.6
2017-05-17T12:54:28.133Z,29.6
2017-05-17T12:55:50.235Z,29.67
2017-05-17T12:57:12.528Z,29.65
2017-05-17T12:58:34.722Z,29.73
2017-05-17T12:59:56.604Z,29.63
2017-05-17T13:01:18.713Z,29.64
2017-05-17T13:02:40.889Z,29.63
2017-05-17T13:04:02.757Z,29.65
2017-05-17T13:05:24.927Z,29.73
2017-05-17T13:06:47.714Z,29.7
2017-05-17T13:08:09.578Z,29.82
2017-05-17T13:09:32.078Z,29.74
2017-05-17T13:10:54.566Z,29.61
2017-05-17T13:12:16.758Z,29.6
2017-05-17T13:13:38.597Z,29.52
2017-05-17T13:15:01.085Z,29.6
2017-05-17T13:16:23.576Z,29.64
2017-05-17T13:17:45.780Z,29.53
2017-05-17T13:19:07.306Z,29.52
2017-05-17T13:20:29.788Z,29.31
2017-05-17T13:21:52.346Z,29.28
2017-05-17T13:23:14.795Z,29.24
2017-05-17T13:24:37.013Z,29.11
2017-05-17T13:25:58.268Z,28.95
2017-05-17T13:27:20.764Z,28.95
2017-05-17T13:28:43.285Z,28.96
2017-05-17T13:30:05.170Z,29
2017-05-17T13:31:27.029Z,29.09
2017-05-17T13:32:49.527Z,29.18
2017-05-17T13:34:11.396Z,29.26
2017-05-17T13:35:33.319Z,29.34
2017-05-17T13:36:55.503Z,29.14
2017-05-17T13:38:17.504Z,29.08
2017-05-17T13:39:39.297Z,29.28
2017-05-17T13:41:01.448Z,29.14
2017-05-17T13:42:23.665Z,29.28
2017-05-17T13:43:46.160Z,29.28
2017-05-17T13:45:08.656Z,29.16
2017-05-17T13:46:31.158Z,29.12
2017-05-17T13:47:53.321Z,29.23
2017-05-17T13:49:15.250Z,29.24
2017-05-17T13:50:38.134Z,29.33
2017-05-17T13:52:00.610Z,29.34
2017-05-17T13:53:22.628Z,29.28
2017-05-17T13:54:44.527Z,29.19
2017-05-17T13:56:07.016Z,29.11
2017-05-17T13:57:29.478Z,29.28
2017-05-17T13:58:51.014Z,29.3
2017-05-17T14:00:13.199Z,29.3
2017-05-17T14:01:35.610Z,29.43
2017-05-17T14:02:57.795Z,29.51
2017-05-17T14:04:20.276Z,29.36
2017-05-17T14:05:42.444Z,29.43
2017-05-17T14:07:04.738Z,29.24
2017-05-17T14:08:26.601Z,29.28
2017-05-17T14:09:48.531Z,29.24
2017-05-17T14:11:10.719Z,29.27
2017-05-17T14:12:33.185Z,29.19
2017-05-17T14:13:55.025Z,29.16
2017-05-17T14:15:16.432Z,29.12
2017-05-17T14:16:38.948Z,29.19
2017-05-17T14:18:01.146Z,29.27
2017-05-17T14:19:22.790Z,29.43
2017-05-17T14:20:44.986Z,29.49
2017-05-17T14:22:06.858Z,29.57
2017-05-17T14:23:29.362Z,29.55
2017-05-17T14:24:51.887Z,29.61
2017-05-17T14:26:13.735Z,29.58
2017-05-17T14:27:35.925Z,29.55
2017-05-17T14:28:58.049Z,29.46
2017-05-17T14:30:20.638Z,29.42
2017-05-17T14:31:43.272Z,29.53
2017-05-17T14:33:05.230Z,29.48
2017-05-17T14:34:27.704Z,29.46
2017-05-17T14:35:49.887Z,29.45
2017-05-17T14:37:12.400Z,29.49
2017-05-17T14:38:34.248Z,29.52
2017-05-17T14:39:57.047Z,29.43
2017-05-17T14:41:19.644Z,29.45
2017-05-17T14:42:41.277Z,29.36
2017-05-17T14:44:03.217Z,29.33
2017-05-17T14:45:25.385Z,29.41
2017-05-17T14:46:47.580Z,29.36
2017-05-17T14:48:09.424Z,29.37
2017-05-17T14:49:31.651Z,29.27
2017-05-17T14:50:54.446Z,29.19
2017-05-17T14:52:16.308Z,29.3
2017-05-17T14:53:38.556Z,29.27
2017-05-17T14:54:59.799Z,29.34
2017-05-17T14:56:22.039Z,29.36
2017-05-17T14:57:43.899Z,29.33
2017-05-17T14:59:06.456Z,29.28
2017-05-17T15:00:28.033Z,29.33
2017-05-17T15:01:50.201Z,29.33
2017-05-17T15:03:12.088Z,29.34
2017-05-17T15:04:34.597Z,29.24
2017-05-17T15:05:56.849Z,29.31
2017-05-17T15:07:19.329Z,29.3
2017-05-17T15:08:41.204Z,29.36
2017-05-17T15:10:04.010Z,29.36
2017-05-17T15:11:25.890Z,29.46
2017-05-17T15:12:48.356Z,29.57
2017-05-17T15:14:10.245Z,29.55
2017-05-17T15:15:32.599Z,29.48
2017-05-17T15:16:55.110Z,29.48
2017-05-17T15:18:17.967Z,29.36
2017-05-17T15:19:40.267Z,29.31
2017-05-17T15:21:02.769Z,29.34
2017-05-17T15:22:24.933Z,29.28
2017-05-17T15:23:47.177Z,29.15
2017-05-17T15:25:09.091Z,29.15
2017-05-17T15:26:31.279Z,29.06
2017-05-17T15:27:53.476Z,29
2017-05-17T15:29:16.280Z,28.96
2017-05-17T15:30:38.129Z,29.02
2017-05-17T15:32:00.640Z,28.98
2017-05-17T15:33:23.142Z,29.05
2017-05-17T15:34:45.925Z,29
2017-05-17T15:36:08.159Z,28.89
2017-05-17T15:37:30.717Z,28.9
2017-05-17T15:38:52.907Z,28.85
2017-05-17T15:40:15.398Z,28.89
2017-05-17T15:41:37.415Z,29.04
2017-05-17T15:42:59.388Z,28.93
2017-05-17T15:44:21.359Z,28.96
2017-05-17T15:45:44.248Z,28.93
2017-05-17T15:47:06.128Z,29.02
2017-05-17T15:48:27.999Z,28.93
2017-05-17T15:49:49.869Z,29
2017-05-17T15:51:12.720Z,28.96
2017-05-17T15:52:34.887Z,29
2017-05-17T15:53:57.058Z,28.9
2017-05-17T15:55:19.637Z,28.9
2017-05-17T15:56:42.069Z,28.83
2017-05-17T15:58:03.937Z,28.8
2017-05-17T15:59:26.138Z,28.88
2017-05-17T16:00:48.328Z,28.88
2017-05-17T16:02:10.857Z,28.85
2017-05-17T16:03:32.737Z,28.81
2017-05-17T16:04:55.266Z,28.85
2017-05-17T16:06:17.764Z,28.81
2017-05-17T16:07:39.865Z,28.89
2017-05-17T16:09:01.726Z,28.86
2017-05-17T16:10:23.885Z,28.86
2017-05-17T16:11:46.437Z,28.74
2017-05-17T16:13:08.664Z,28.77
2017-05-17T16:14:30.854Z,28.77
2017-05-17T16:15:53.086Z,28.78
2017-05-17T16:17:14.947Z,28.77
2017-05-17T16:18:37.624Z,28.76
2017-05-17T16:19:59.815Z,28.61
2017-05-17T16:21:21.686Z,28.59
2017-05-17T16:22:43.540Z,28.61
2017-05-17T16:24:05.825Z,28.58
2017-05-17T16:25:28.317Z,28.48
2017-05-17T16:26:50.227Z,28.51
2017-05-17T16:28:12.119Z,28.49
2017-05-17T16:29:34.620Z,28.39
2017-05-17T16:30:56.531Z,28.36
2017-05-17T16:32:18.704Z,28.27
2017-05-17T16:33:40.813Z,28.36
2017-05-17T16:35:02.645Z,28.31
2017-05-17T16:36:24.169Z,28.24
2017-05-17T16:37:46.068Z,28.19
2017-05-17T16:39:08.555Z,28.11
2017-05-17T16:40:31.008Z,28.15
2017-05-17T16:41:53.192Z,28.04
2017-05-17T16:43:15.397Z,28.06
2017-05-17T16:44:37.586Z,28.12
2017-05-17T16:45:59.698Z,28.06
2017-05-17T16:47:21.286Z,28.15
2017-05-17T16:48:43.247Z,28.17
2017-05-17T16:50:05.785Z,28.12
2017-05-17T16:51:28.577Z,28.12
2017-05-17T16:52:50.458Z,28.06
2017-05-17T16:54:12.347Z,28.04
2017-05-17T16:55:34.956Z,28
2017-05-17T16:56:57.806Z,28.07
2017-05-17T16:58:20.006Z,28
2017-05-17T16:59:41.857Z,28.02
2017-05-17T17:01:04.396Z,28.03
2017-05-17T17:02:26.495Z,27.92
2017-05-17T17:03:48.864Z,27.85
2017-05-17T17:05:10.740Z,27.88
2017-05-17T17:06:32.946Z,27.87
2017-05-17T17:07:55.385Z,27.79
2017-05-17T17:09:17.300Z,27.82
2017-05-17T17:10:39.480Z,27.82
2017-05-17T17:12:02.064Z,27.77
2017-05-17T17:13:24.240Z,27.75
2017-05-17T17:14:46.726Z,27.69
2017-05-17T17:16:08.935Z,27.66
2017-05-17T17:17:31.129Z,27.69
2017-05-17T17:18:53.575Z,27.66
2017-05-17T17:20:15.516Z,27.63
2017-05-17T17:21:37.708Z,27.67
2017-05-17T17:23:00.220Z,27.59
2017-05-17T17:24:22.954Z,27.57
2017-05-17T17:25:45.149Z,27.51
2017-05-17T17:27:07.324Z,27.5
2017-05-17T17:28:29.686Z,27.4
2017-05-17T17:29:52.227Z,27.44
2017-05-17T17:31:14.433Z,27.39
2017-05-17T17:32:36.308Z,27.28
2017-05-17T17:33:58.487Z,27.32
2017-05-17T17:35:21.046Z,27.19
2017-05-17T17:36:43.242Z,27.19
2017-05-17T17:38:05.795Z,27.31
2017-05-17T17:39:28.396Z,27.28
2017-05-17T17:40:51.224Z,27.25
2017-05-17T17:42:13.788Z,27.1